createdAt,value
2024-04-16T00:00:04.060Z,351.77
2024-04-16T00:02:42.466Z,351.67
2024-04-16T00:05:09.748Z,346.33
2024-04-16T00:07:39.681Z,344.17
2024-04-16T00:10:09.689Z,346.67
2024-04-16T00:12:39.621Z,344.42
2024-04-16T00:15:27.134Z,343.70
2024-04-16T00:17:58.307Z,347.20
2024-04-16T00:20:25.652Z,345.52
2024-04-16T00:22:55.435Z,346.73
2024-04-16T00:25:25.281Z,350.02
2024-04-16T00:27:55.071Z,351.15
2024-04-16T00:30:22.890Z,354.60
2024-04-16T00:32:52.587Z,355.38
2024-04-16T00:35:19.704Z,355.75
2024-04-16T00:37:49.388Z,356.77
2024-04-16T00:40:16.642Z,350.15
2024-04-16T00:42:52.590Z,348.27
2024-04-16T00:45:19.889Z,348.25
2024-04-16T00:47:49.784Z,342.52
2024-04-16T00:50:17.491Z,346.27
2024-04-16T00:52:47.793Z,342.27
2024-04-16T00:55:15.154Z,345.60
2024-04-16T00:57:44.866Z,343.73
2024-04-16T01:00:14.787Z,375.60
2024-04-16T01:02:44.554Z,328.98
2024-04-16T01:05:11.713Z,373.75
2024-04-16T01:07:41.533Z,365.27
2024-04-16T01:10:08.658Z,360.88
2024-04-16T01:12:44.243Z,366.42
2024-04-16T01:15:14.611Z,365.30
2024-04-16T01:17:45.864Z,361.95
2024-04-16T01:20:13.677Z,355.90
2024-04-16T01:22:43.976Z,352.98
2024-04-16T01:25:13.779Z,346.60
2024-04-16T01:27:43.524Z,340.20
2024-04-16T01:30:11.267Z,336.48
2024-04-16T01:32:41.188Z,334.25
2024-04-16T01:35:08.407Z,334.02
2024-04-16T01:37:38.168Z,328.88
2024-04-16T01:40:06.366Z,325.38
2024-04-16T01:42:38.700Z,323.08
2024-04-16T01:45:06.368Z,314.48
2024-04-16T01:47:36.272Z,317.55
2024-04-16T01:50:03.742Z,325.75
2024-04-16T01:52:33.483Z,324.08
2024-04-16T01:55:00.762Z,326.75
2024-04-16T01:57:30.484Z,326.40
2024-04-16T02:00:00.228Z,327.77
2024-04-16T02:02:30.158Z,322.88
2024-04-16T02:04:57.286Z,328.13
2024-04-16T02:07:27.315Z,327.17
2024-04-16T02:09:54.481Z,327.45
2024-04-16T02:12:24.188Z,330.40
2024-04-16T02:14:51.646Z,330.55
2024-04-16T02:17:26.046Z,332.65
2024-04-16T02:19:53.253Z,322.75
2024-04-16T02:22:23.016Z,324.77
2024-04-16T02:24:50.191Z,334.25
2024-04-16T02:27:19.873Z,316.77
2024-04-16T02:29:46.952Z,312.60
2024-04-16T02:32:16.814Z,309.02
2024-04-16T02:34:46.552Z,311.33
2024-04-16T02:37:16.359Z,313.20
2024-04-16T02:39:43.623Z,315.42
2024-04-16T02:42:13.494Z,309.60
2024-04-16T02:44:40.604Z,314.27
2024-04-16T02:47:10.336Z,313.35
2024-04-16T02:49:38.123Z,312.00
2024-04-16T02:52:11.567Z,309.70
2024-04-16T02:54:38.747Z,313.05
2024-04-16T02:57:08.591Z,316.35
2024-04-16T02:59:35.686Z,320.80
2024-04-16T03:02:05.377Z,317.35
2024-04-16T03:04:32.932Z,312.38
2024-04-16T03:07:02.686Z,317.35
2024-04-16T03:09:32.488Z,310.42
2024-04-16T03:12:02.183Z,304.15
2024-04-16T03:14:29.662Z,304.80
2024-04-16T03:16:59.527Z,298.88
2024-04-16T03:19:26.701Z,296.45
2024-04-16T03:21:56.419Z,293.77
2024-04-16T03:24:23.594Z,295.60
2024-04-16T03:26:56.406Z,299.95
2024-04-16T03:29:23.509Z,297.13
2024-04-16T03:31:53.261Z,293.08
2024-04-16T03:34:20.404Z,291.00
2024-04-16T03:36:50.144Z,294.08
2024-04-16T03:39:19.851Z,295.33
2024-04-16T03:41:49.545Z,295.67
2024-04-16T03:44:19.281Z,293.85
2024-04-16T03:46:48.997Z,293.35
2024-04-16T03:49:16.140Z,295.00
2024-04-16T03:51:45.888Z,294.50
2024-04-16T03:54:12.996Z,299.40
2024-04-16T03:56:42.731Z,299.13
2024-04-16T03:59:17.328Z,291.75
2024-04-16T04:01:49.636Z,292.52
2024-04-16T04:04:19.615Z,287.17
2024-04-16T04:06:46.798Z,291.55
2024-04-16T04:09:16.500Z,293.63
2024-04-16T04:11:43.599Z,295.67
2024-04-16T04:14:13.392Z,295.60
2024-04-16T04:16:40.601Z,293.40
2024-04-16T04:19:12.996Z,292.88
2024-04-16T04:21:40.123Z,295.50
2024-04-16T04:24:15.975Z,296.13
2024-04-16T04:26:50.815Z,294.52
2024-04-16T04:29:20.550Z,295.10
2024-04-16T04:31:47.695Z,293.45
2024-04-16T04:34:20.049Z,294.20
2024-04-16T04:36:47.220Z,298.67
2024-04-16T04:39:16.901Z,292.67
2024-04-16T04:41:44.007Z,290.85
2024-04-16T04:44:14.202Z,292.17
2024-04-16T04:46:41.321Z,289.45
2024-04-16T04:49:11.060Z,293.75
2024-04-16T04:51:40.746Z,292.00
2024-04-16T04:54:10.488Z,296.67
2024-04-16T04:56:37.580Z,293.10
2024-04-16T04:59:07.300Z,294.77
2024-04-16T05:01:34.425Z,297.45
2024-04-16T05:04:04.271Z,295.67
2024-04-16T05:06:31.460Z,286.00
2024-04-16T05:09:03.831Z,280.83
2024-04-16T05:11:31.002Z,280.02
2024-04-16T05:14:00.763Z,275.77
2024-04-16T05:16:27.864Z,277.13
2024-04-16T05:18:57.578Z,275.98
2024-04-16T05:21:24.735Z,275.90
2024-04-16T05:23:54.427Z,279.42
2024-04-16T05:26:24.303Z,278.38
2024-04-16T05:28:54.090Z,280.90
2024-04-16T05:31:21.273Z,276.33
2024-04-16T05:33:51.604Z,280.35
2024-04-16T05:36:18.812Z,273.73
2024-04-16T05:38:48.556Z,274.70
2024-04-16T05:41:16.707Z,270.75
2024-04-16T05:43:49.133Z,271.45
2024-04-16T05:46:16.811Z,269.77
2024-04-16T05:48:47.357Z,266.35
2024-04-16T05:51:15.223Z,271.30
2024-04-16T05:53:44.960Z,272.10
2024-04-16T05:56:12.063Z,269.40
2024-04-16T05:58:41.934Z,266.48
2024-04-16T06:01:13.501Z,268.13
2024-04-16T06:03:43.321Z,268.33
2024-04-16T06:06:10.439Z,270.60
2024-04-16T06:08:40.143Z,270.50
2024-04-16T06:11:07.281Z,270.83
2024-04-16T06:13:40.194Z,272.67
2024-04-16T06:16:08.639Z,269.83
2024-04-16T06:18:43.175Z,271.75
2024-04-16T06:21:11.430Z,270.27
2024-04-16T06:23:41.159Z,270.52
2024-04-16T06:26:09.151Z,270.38
2024-04-16T06:28:39.126Z,275.38
2024-04-16T06:31:06.303Z,275.77
2024-04-16T06:33:38.348Z,276.88
2024-04-16T06:36:08.887Z,278.45
2024-04-16T06:38:38.575Z,279.98
2024-04-16T06:41:07.143Z,278.52
2024-04-16T06:43:36.932Z,277.80
2024-04-16T06:46:07.406Z,272.55
2024-04-16T06:48:35.392Z,273.45
2024-04-16T06:51:05.642Z,281.15
2024-04-16T06:53:35.416Z,280.52
2024-04-16T06:56:05.728Z,283.33
2024-04-16T06:58:32.949Z,282.38
2024-04-16T07:01:03.435Z,282.40
2024-04-16T07:03:30.670Z,288.88
2024-04-16T07:06:00.463Z,293.83
2024-04-16T07:08:30.189Z,303.42
2024-04-16T07:10:59.893Z,308.35
2024-04-16T07:13:29.823Z,313.42
2024-04-16T07:15:56.925Z,318.73
2024-04-16T07:18:26.768Z,335.40
2024-04-16T07:20:53.977Z,345.92
2024-04-16T07:23:23.675Z,329.80
2024-04-16T07:25:50.849Z,320.55
2024-04-16T07:28:23.179Z,315.85
2024-04-16T07:30:54.811Z,304.80
2024-04-16T07:33:31.595Z,298.33
2024-04-16T07:35:59.125Z,294.92
2024-04-16T07:38:28.853Z,292.42
2024-04-16T07:40:56.332Z,293.63
2024-04-16T07:43:28.956Z,291.30
2024-04-16T07:45:56.133Z,294.63
2024-04-16T07:48:25.894Z,291.33
2024-04-16T07:50:53.066Z,291.15
2024-04-16T07:53:22.786Z,292.15
2024-04-16T07:55:49.889Z,289.02
2024-04-16T07:58:19.646Z,290.70
2024-04-16T08:00:51.118Z,297.80
2024-04-16T08:03:20.858Z,284.75
2024-04-16T08:05:47.963Z,285.17
2024-04-16T08:08:21.858Z,285.13
2024-04-16T08:10:51.474Z,285.90
2024-04-16T08:13:21.292Z,285.42
2024-04-16T08:15:51.094Z,282.50
2024-04-16T08:18:21.933Z,282.83
2024-04-16T08:20:49.228Z,279.73
2024-04-16T08:23:20.467Z,279.30
2024-04-16T08:25:57.691Z,280.65
2024-04-16T08:28:27.764Z,277.17
2024-04-16T08:30:59.113Z,279.15
2024-04-16T08:33:29.508Z,289.60
2024-04-16T08:35:58.094Z,325.58
2024-04-16T08:38:28.201Z,307.75
2024-04-16T08:40:57.849Z,298.80
2024-04-16T08:43:32.903Z,314.88
2024-04-16T08:48:33.633Z,299.83
2024-04-16T08:51:01.772Z,293.23
2024-04-16T08:53:33.393Z,291.70
2024-04-16T08:56:02.091Z,279.80
2024-04-16T08:58:31.882Z,281.27
2024-04-16T09:00:59.998Z,275.95
2024-04-16T09:03:32.965Z,272.55
2024-04-16T09:06:01.251Z,279.17
2024-04-16T09:08:32.091Z,270.20
2024-04-16T09:10:59.314Z,266.60
2024-04-16T09:13:29.175Z,266.90
2024-04-16T09:15:58.362Z,266.10
2024-04-16T09:18:28.877Z,269.17
2024-04-16T09:20:58.824Z,278.42
2024-04-16T09:23:28.527Z,287.83
2024-04-16T09:25:57.370Z,287.55
2024-04-16T09:30:55.293Z,293.95
2024-04-16T09:33:36.392Z,285.60
2024-04-16T09:36:12.448Z,280.75
2024-04-16T09:38:44.409Z,284.25
2024-04-16T09:41:12.063Z,279.88
2024-04-16T09:43:42.669Z,282.13
2024-04-16T09:46:12.086Z,278.75
2024-04-16T09:48:42.613Z,274.85
2024-04-16T09:51:15.170Z,260.45
2024-04-16T09:53:46.607Z,258.75
2024-04-16T09:56:15.796Z,253.73
2024-04-16T09:58:52.033Z,256.90
2024-04-16T10:01:21.565Z,246.77
2024-04-16T10:03:54.287Z,245.95
2024-04-16T10:06:24.200Z,245.43
2024-04-16T10:08:55.376Z,244.88
2024-04-16T10:11:30.984Z,246.02
2024-04-16T10:14:02.430Z,243.75
2024-04-16T10:16:29.750Z,245.05
2024-04-16T10:19:00.343Z,244.63
2024-04-16T10:21:38.899Z,249.65
2024-04-16T10:24:12.569Z,251.77
2024-04-16T10:26:43.027Z,257.25
2024-04-16T10:29:16.973Z,254.48
2024-04-16T10:31:45.905Z,252.63
2024-04-16T10:34:23.343Z,248.88
2024-04-16T10:36:56.351Z,248.48
2024-04-16T10:39:33.326Z,250.23
2024-04-16T10:42:02.522Z,247.23
2024-04-16T10:44:32.825Z,254.25
2024-04-16T10:47:01.491Z,247.40
2024-04-16T10:52:10.805Z,261.30
2024-04-16T10:54:41.338Z,256.63
2024-04-16T10:57:08.467Z,254.93
2024-04-16T10:59:38.194Z,256.77
2024-04-16T11:02:06.074Z,252.27
2024-04-16T11:04:35.848Z,250.70
2024-04-16T11:07:06.197Z,251.32
2024-04-16T11:09:36.064Z,246.10
2024-04-16T11:12:04.397Z,246.00
2024-04-16T11:14:34.506Z,244.80
2024-04-16T11:17:04.288Z,248.20
2024-04-16T11:19:34.489Z,248.68
2024-04-16T11:22:01.776Z,258.60
2024-04-16T11:24:34.251Z,265.02
2024-04-16T11:27:04.014Z,269.48
2024-04-16T11:29:31.341Z,273.02
2024-04-16T11:32:01.146Z,271.88
2024-04-16T11:34:28.418Z,265.48
2024-04-16T11:37:00.174Z,263.60
2024-04-16T11:39:32.611Z,266.98
2024-04-16T11:42:02.726Z,276.15
2024-04-16T11:44:29.936Z,272.88
2024-04-16T11:46:59.807Z,274.05
2024-04-16T11:49:27.040Z,273.15
2024-04-16T11:51:56.814Z,268.35
2024-04-16T11:54:23.895Z,269.65
2024-04-16T11:56:56.266Z,266.63
2024-04-16T11:59:23.396Z,270.65
2024-04-16T12:01:53.806Z,268.40
2024-04-16T12:04:21.225Z,271.20
2024-04-16T12:06:51.080Z,265.30
2024-04-16T12:09:18.223Z,263.20
2024-04-16T12:11:48.412Z,262.45
2024-04-16T12:14:18.297Z,266.75
2024-04-16T12:16:48.123Z,267.20
2024-04-16T12:19:15.528Z,267.88
2024-04-16T12:21:45.500Z,266.55
2024-04-16T12:24:12.635Z,268.58
2024-04-16T12:26:42.538Z,269.98
2024-04-16T12:29:09.632Z,271.95
2024-04-16T12:31:42.057Z,267.92
2024-04-16T12:34:10.082Z,270.10
2024-04-16T12:39:07.657Z,273.35
2024-04-16T12:41:37.489Z,272.38
2024-04-16T12:44:04.700Z,270.20
2024-04-16T12:46:34.558Z,265.38
2024-04-16T12:49:04.322Z,267.48
2024-04-16T12:51:34.044Z,273.00
2024-04-16T12:54:01.147Z,268.35
2024-04-16T12:56:31.147Z,270.95
2024-04-16T12:58:58.401Z,268.27
2024-04-16T13:01:28.108Z,269.98
2024-04-16T13:03:55.288Z,270.70
2024-04-16T13:06:27.696Z,270.05
2024-04-16T13:08:54.795Z,273.15
2024-04-16T13:11:24.702Z,274.73
2024-04-16T13:13:52.058Z,271.58
2024-04-16T13:16:21.874Z,273.83
2024-04-16T13:18:49.668Z,267.67
2024-04-16T13:21:19.394Z,271.92
2024-04-16T13:23:49.138Z,275.00
2024-04-16T13:26:18.813Z,270.67
2024-04-16T13:28:46.282Z,271.00
2024-04-16T13:31:16.208Z,273.20
2024-04-16T13:33:43.343Z,275.52
2024-04-16T13:36:13.074Z,275.38
2024-04-16T13:38:40.186Z,276.67
2024-04-16T13:41:12.561Z,283.23
2024-04-16T13:43:39.735Z,279.75
2024-04-16T13:46:09.519Z,277.20
2024-04-16T13:48:36.876Z,278.33
2024-04-16T13:51:07.271Z,279.42
2024-04-16T13:53:34.393Z,291.42
2024-04-16T13:56:04.068Z,302.05
2024-04-16T13:58:33.824Z,302.95
2024-04-16T14:01:03.580Z,293.95
2024-04-16T14:03:30.820Z,297.52
2024-04-16T14:06:00.675Z,295.73
2024-04-16T14:08:27.872Z,295.83
2024-04-16T14:10:57.715Z,294.30
2024-04-16T14:13:25.145Z,291.45
2024-04-16T14:15:57.484Z,286.90
2024-04-16T14:18:24.789Z,292.83
2024-04-16T14:20:54.580Z,293.00
2024-04-16T14:23:21.775Z,296.42
2024-04-16T14:25:51.493Z,288.55
2024-04-16T14:28:18.698Z,284.25
2024-04-16T14:30:49.003Z,284.73
2024-04-16T14:33:21.470Z,290.73
2024-04-16T14:35:52.949Z,285.52
2024-04-16T14:38:20.084Z,287.95
2024-04-16T14:40:49.828Z,285.45
2024-04-16T14:43:17.020Z,284.65
2024-04-16T14:45:46.750Z,288.50
2024-04-16T14:48:13.947Z,297.92
2024-04-16T14:50:47.245Z,304.20
2024-04-16T14:53:14.516Z,297.48
2024-04-16T14:55:48.263Z,294.83
2024-04-16T14:58:15.480Z,298.38
2024-04-16T15:00:45.292Z,308.08
2024-04-16T15:03:12.892Z,305.95
2024-04-16T15:05:43.350Z,301.17
2024-04-16T15:08:13.981Z,295.52
2024-04-16T15:10:43.867Z,300.10
2024-04-16T15:13:12.245Z,289.58
2024-04-16T15:15:42.057Z,284.05
2024-04-16T15:18:09.250Z,282.48
2024-04-16T15:20:39.124Z,280.92
2024-04-16T15:23:06.246Z,281.75
2024-04-16T15:25:39.185Z,279.38
2024-04-16T15:28:06.723Z,279.40
2024-04-16T15:30:37.430Z,281.75
2024-04-16T15:33:04.833Z,279.48
2024-04-16T15:35:49.956Z,280.95
2024-04-16T15:38:17.490Z,279.40
2024-04-16T15:40:51.525Z,283.33
2024-04-16T15:43:20.137Z,283.90
2024-04-16T15:45:49.881Z,287.55
2024-04-16T15:48:17.184Z,283.25
2024-04-16T15:50:47.041Z,282.35
2024-04-16T15:53:14.202Z,282.42
2024-04-16T15:55:45.293Z,286.95
2024-04-16T15:58:16.536Z,287.08
2024-04-16T16:00:46.685Z,283.23
2024-04-16T16:03:14.059Z,286.00
2024-04-16T16:05:46.689Z,287.95
2024-04-16T16:08:14.115Z,287.17
2024-04-16T16:10:44.310Z,285.33
2024-04-16T16:13:14.175Z,282.85
2024-04-16T16:15:43.904Z,282.67
2024-04-16T16:18:11.464Z,282.55
2024-04-16T16:20:41.404Z,283.05
2024-04-16T16:23:08.585Z,289.20
2024-04-16T16:25:38.317Z,289.13
2024-04-16T16:28:05.826Z,292.98
2024-04-16T16:30:38.327Z,292.85
2024-04-16T16:33:05.996Z,295.75
2024-04-16T16:35:35.860Z,294.50
2024-04-16T16:38:02.952Z,301.65
2024-04-16T16:40:32.741Z,304.75
2024-04-16T16:42:59.857Z,302.83
2024-04-16T16:45:29.607Z,298.92
2024-04-16T16:47:59.404Z,301.77
2024-04-16T16:50:29.403Z,301.63
2024-04-16T16:52:56.647Z,304.73
2024-04-16T16:55:26.384Z,301.35
2024-04-16T16:57:53.498Z,307.73
2024-04-16T17:00:23.710Z,315.63
2024-04-16T17:02:52.529Z,314.58
2024-04-16T17:07:51.880Z,320.60
2024-04-16T17:10:21.731Z,319.70
2024-04-16T17:12:48.899Z,307.83
2024-04-16T17:15:19.343Z,298.95
2024-04-16T17:17:46.559Z,302.02
2024-04-16T17:20:16.930Z,300.75
2024-04-16T17:22:49.337Z,299.55
2024-04-16T17:25:20.917Z,304.88
2024-04-16T17:27:48.062Z,306.95
2024-04-16T17:30:17.812Z,309.75
2024-04-16T17:32:45.083Z,311.20
2024-04-16T17:35:15.372Z,315.02
2024-04-16T17:37:43.599Z,310.63
2024-04-16T17:40:16.206Z,312.38
2024-04-16T17:42:43.317Z,312.35
2024-04-16T17:45:13.010Z,304.08
2024-04-16T17:47:40.573Z,310.17
2024-04-16T17:50:11.774Z,306.77
2024-04-16T17:52:38.966Z,315.27
2024-04-16T17:55:11.285Z,308.98
2024-04-16T17:57:41.906Z,308.83
2024-04-16T18:00:13.272Z,308.58
2024-04-16T18:02:40.391Z,309.15
2024-04-16T18:05:11.822Z,307.27
2024-04-16T18:07:39.171Z,308.63
2024-04-16T18:10:10.098Z,308.92
2024-04-16T18:12:40.095Z,309.25
2024-04-16T18:15:10.802Z,314.48
2024-04-16T18:17:38.005Z,312.55
2024-04-16T18:20:08.749Z,312.73
2024-04-16T18:22:36.034Z,321.92
2024-04-16T18:25:05.908Z,316.05
2024-04-16T18:27:36.015Z,321.17
2024-04-16T18:30:09.555Z,355.20
2024-04-16T18:32:36.685Z,334.65
2024-04-16T18:35:06.943Z,325.55
2024-04-16T18:37:34.067Z,319.45
2024-04-16T18:40:03.793Z,316.95
2024-04-16T18:42:32.065Z,312.35
2024-04-16T18:45:01.781Z,314.85
2024-04-16T18:47:31.568Z,314.17
2024-04-16T18:50:01.344Z,314.60
2024-04-16T18:52:28.974Z,313.58
2024-04-16T18:54:58.867Z,312.67
2024-04-16T18:57:25.992Z,309.75
2024-04-16T18:59:57.169Z,310.65
2024-04-16T19:02:24.376Z,310.20
2024-04-16T19:04:56.773Z,312.50
2024-04-16T19:07:24.071Z,315.42
2024-04-16T19:09:53.813Z,309.60
2024-04-16T19:12:20.943Z,312.45
2024-04-16T19:14:50.956Z,313.63
2024-04-16T19:17:19.882Z,310.50
2024-04-16T19:19:49.747Z,315.10
2024-04-16T19:22:22.026Z,308.70
2024-04-16T19:24:53.721Z,309.73
2024-04-16T19:27:21.189Z,312.52
2024-04-16T19:29:52.620Z,312.25
2024-04-16T19:32:19.774Z,316.55
2024-04-16T19:34:49.819Z,317.83
2024-04-16T19:37:19.626Z,316.02
2024-04-16T19:39:49.394Z,314.83
2024-04-16T19:42:16.717Z,317.83
2024-04-16T19:44:46.635Z,316.52
2024-04-16T19:47:13.939Z,318.98
2024-04-16T19:49:43.835Z,316.35
2024-04-16T19:52:10.964Z,314.73
2024-04-16T19:54:43.383Z,320.00
2024-04-16T19:57:10.564Z,318.02
2024-04-16T19:59:40.779Z,314.98
2024-04-16T20:02:08.044Z,322.27
2024-04-16T20:04:38.065Z,317.23
2024-04-16T20:07:05.888Z,313.17
2024-04-16T20:09:35.613Z,321.17
2024-04-16T20:12:05.932Z,318.13
2024-04-16T20:14:37.596Z,317.85
2024-04-16T20:17:04.993Z,328.30
2024-04-16T20:19:37.970Z,317.25
2024-04-16T20:22:05.659Z,317.38
2024-04-16T20:24:35.741Z,321.55
2024-04-16T20:27:05.711Z,322.73
2024-04-16T20:32:03.608Z,316.63
2024-04-16T20:34:40.510Z,322.55
2024-04-16T20:37:14.708Z,320.30
2024-04-16T20:39:44.946Z,319.73
2024-04-16T20:42:14.715Z,312.15
2024-04-16T20:44:44.572Z,314.33
2024-04-16T20:47:11.715Z,324.90
2024-04-16T20:49:42.933Z,323.25
2024-04-16T20:52:10.321Z,319.40
2024-04-16T20:54:40.054Z,317.33
2024-04-16T20:59:42.572Z,311.67
2024-04-16T21:02:11.151Z,313.65
2024-04-16T21:04:40.964Z,310.88
2024-04-16T21:07:08.543Z,315.60
2024-04-16T21:09:39.034Z,315.27
2024-04-16T21:12:07.021Z,327.60
2024-04-16T21:14:39.378Z,320.75
2024-04-16T21:17:06.711Z,314.83
2024-04-16T21:19:36.455Z,318.10
2024-04-16T21:22:03.710Z,323.95
2024-04-16T21:24:33.390Z,312.85
2024-04-16T21:27:00.521Z,309.95
2024-04-16T21:29:30.251Z,304.55
2024-04-16T21:32:00.333Z,307.50
2024-04-16T21:34:30.133Z,306.67
2024-04-16T21:36:57.263Z,304.92
2024-04-16T21:39:26.984Z,311.02
2024-04-16T21:41:54.283Z,306.65
2024-04-16T21:44:23.970Z,307.92
2024-04-16T21:46:51.253Z,336.50
2024-04-16T21:49:23.705Z,318.17
2024-04-16T21:51:50.826Z,304.98
2024-04-16T21:54:20.663Z,303.58
2024-04-16T21:56:47.787Z,304.17
2024-04-16T21:59:17.519Z,307.90
2024-04-16T22:01:44.649Z,307.55
2024-04-16T22:04:15.116Z,305.50
2024-04-16T22:06:44.888Z,310.92
2024-04-16T22:09:14.561Z,312.42
2024-04-16T22:11:41.714Z,318.48
2024-04-16T22:14:11.446Z,326.50
2024-04-16T22:17:35.149Z,323.98
2024-04-16T22:21:17.364Z,316.30
2024-04-16T22:24:08.520Z,311.45
2024-04-16T22:26:36.394Z,313.85
2024-04-16T22:29:06.097Z,305.25
2024-04-16T22:31:33.294Z,300.55
2024-04-16T22:34:02.986Z,305.92
2024-04-16T22:36:37.051Z,303.92
2024-04-16T22:39:06.792Z,303.42
2024-04-16T22:41:36.444Z,302.67
2024-04-16T22:44:03.799Z,302.00
2024-04-16T22:46:33.747Z,306.45
2024-04-16T22:49:00.908Z,305.15
2024-04-16T22:51:30.660Z,304.05
2024-04-16T22:53:57.784Z,301.83
2024-04-16T22:56:30.083Z,299.85
2024-04-16T22:58:57.317Z,297.70
2024-04-16T23:01:27.120Z,300.15
2024-04-16T23:03:54.315Z,304.65
2024-04-16T23:06:24.369Z,298.35
2024-04-16T23:08:51.878Z,295.35
2024-04-16T23:11:21.872Z,297.60
2024-04-16T23:13:51.704Z,300.25
2024-04-16T23:16:21.499Z,293.02
2024-04-16T23:18:48.712Z,292.60
2024-04-16T23:21:18.422Z,296.67
2024-04-16T23:23:45.515Z,299.10
2024-04-16T23:26:15.371Z,295.42
2024-04-16T23:28:42.578Z,297.65
2024-04-16T23:31:14.942Z,298.73
2024-04-16T23:33:42.029Z,296.90
2024-04-16T23:36:11.885Z,293.35
2024-04-16T23:38:39.003Z,300.40
2024-04-16T23:41:09.230Z,294.90
2024-04-16T23:43:36.414Z,293.35
2024-04-16T23:46:06.745Z,296.15
2024-04-16T23:48:36.617Z,294.00
2024-04-16T23:51:06.471Z,297.95
2024-04-16T23:53:33.616Z,298.35
2024-04-16T23:56:03.321Z,298.75
2024-04-16T23:58:30.460Z,299.13
